WSAP/QPG METAR and TAF weather

Enter ICAO airport designator
Station Type Date Time Source
WSAP METAR 2021/09/24 03:00 UTC NOAA

WSAP 240300Z 18007KT 9999 FEW020 BKN300 31/23 Q1011


Station Type Date Time Source
WSAP Decoded METAR 2021/09/24 03:00 UTC NOAA

Singapore / Paya Lebar, Singapore (WSAP) 01-22N 103-55E 32M
Sep 23, 2021 - 11:00 PM EDT / 2021.09.24 0300 UTC
Wind: from the S (180 degrees) at 8 MPH (7 KT):0
Visibility: greater than 7 mile(s):0
Sky conditions: mostly cloudy
Temperature: 87 F (31 C)
Heat index: 93.9 F (34.4 C):1
Dew Point: 73 F (23 C)
Relative Humidity: 62%
Pressure (altimeter): 29.85 in. Hg (1011 hPa)
ob: WSAP 240300Z 18007KT 9999 FEW020 BKN300 31/23 Q1011
cycle: 3

Station Type Date Time Source
WSAP TAF 2021/09/23 18:26 UTC NOAA

TAF WSAP 231700Z 2318/2500 17009KT 9999 FEW015 SCT020
TEMPO 2405/2408 3000 TSRA FEW012CB BKN015

Example: see airport list